sensor_id;sensor_type;location;lat;lon;timestamp;P1;durP1;ratioP1;P2;durP2;ratioP2
42726;SDS011;28372;56.832;60.658;2023-03-01T00:01:32;6.53;;;3.25;;
42726;SDS011;28372;56.832;60.658;2023-03-01T00:04:00;5.50;;;2.80;;
42726;SDS011;28372;56.832;60.658;2023-03-01T00:06:27;6.20;;;2.80;;
42726;SDS011;28372;56.832;60.658;2023-03-01T00:08:56;5.53;;;3.15;;
42726;SDS011;28372;56.832;60.658;2023-03-01T00:11:24;7.03;;;3.17;;
42726;SDS011;28372;56.832;60.658;2023-03-01T00:13:55;5.57;;;2.85;;
42726;SDS011;28372;56.832;60.658;2023-03-01T00:16:31;6.53;;;3.25;;
42726;SDS011;28372;56.832;60.658;2023-03-01T00:19:01;5.68;;;3.22;;
42726;SDS011;28372;56.832;60.658;2023-03-01T00:21:29;5.22;;;3.17;;
42726;SDS011;28372;56.832;60.658;2023-03-01T00:23:57;6.75;;;3.63;;
42726;SDS011;28372;56.832;60.658;2023-03-01T00:26:25;6.05;;;3.28;;
42726;SDS011;28372;56.832;60.658;2023-03-01T00:28:54;6.28;;;3.40;;
42726;SDS011;28372;56.832;60.658;2023-03-01T00:31:28;5.70;;;3.28;;
42726;SDS011;28372;56.832;60.658;2023-03-01T00:33:58;6.22;;;3.47;;
42726;SDS011;28372;56.832;60.658;2023-03-01T00:36:28;6.40;;;3.30;;
42726;SDS011;28372;56.832;60.658;2023-03-01T00:38:58;6.53;;;3.65;;
42726;SDS011;28372;56.832;60.658;2023-03-01T00:41:26;6.63;;;3.60;;
42726;SDS011;28372;56.832;60.658;2023-03-01T00:43:54;8.85;;;4.10;;
42726;SDS011;28372;56.832;60.658;2023-03-01T00:46:35;6.57;;;3.50;;
42726;SDS011;28372;56.832;60.658;2023-03-01T00:49:03;6.90;;;3.60;;
42726;SDS011;28372;56.832;60.658;2023-03-01T00:51:31;7.10;;;3.67;;
42726;SDS011;28372;56.832;60.658;2023-03-01T00:54:00;6.05;;;3.53;;
42726;SDS011;28372;56.832;60.658;2023-03-01T00:56:29;9.48;;;4.00;;
42726;SDS011;28372;56.832;60.658;2023-03-01T00:58:58;8.63;;;4.50;;
42726;SDS011;28372;56.832;60.658;2023-03-01T01:01:26;6.80;;;3.63;;
42726;SDS011;28372;56.832;60.658;2023-03-01T01:04:00;8.90;;;3.63;;
42726;SDS011;28372;56.832;60.658;2023-03-01T01:06:32;8.88;;;4.30;;
42726;SDS011;28372;56.832;60.658;2023-03-01T01:09:03;6.60;;;3.50;;
42726;SDS011;28372;56.832;60.658;2023-03-01T01:11:32;8.85;;;3.97;;
42726;SDS011;28372;56.832;60.658;2023-03-01T01:14:02;6.68;;;3.85;;
42726;SDS011;28372;56.832;60.658;2023-03-01T01:16:31;8.55;;;4.50;;
42726;SDS011;28372;56.832;60.658;2023-03-01T01:19:00;7.43;;;4.03;;
42726;SDS011;28372;56.832;60.658;2023-03-01T01:21:27;8.35;;;4.38;;
42726;SDS011;28372;56.832;60.658;2023-03-01T01:23:57;6.82;;;3.58;;
42726;SDS011;28372;56.832;60.658;2023-03-01T01:26:26;6.65;;;3.75;;
42726;SDS011;28372;56.832;60.658;2023-03-01T01:28:56;6.72;;;3.80;;
42726;SDS011;28372;56.832;60.658;2023-03-01T01:31:25;7.90;;;4.43;;
42726;SDS011;28372;56.832;60.658;2023-03-01T01:33:56;7.93;;;4.15;;
42726;SDS011;28372;56.832;60.658;2023-03-01T01:36:24;7.32;;;3.88;;
42726;SDS011;28372;56.832;60.658;2023-03-01T01:38:52;8.27;;;4.15;;
42726;SDS011;28372;56.832;60.658;2023-03-01T01:41:20;8.15;;;4.35;;
42726;SDS011;28372;56.832;60.658;2023-03-01T01:44:09;8.43;;;4.18;;
42726;SDS011;28372;56.832;60.658;2023-03-01T01:49:31;6.75;;;3.22;;
42726;SDS011;28372;56.832;60.658;2023-03-01T01:57:16;8.48;;;4.15;;
42726;SDS011;28372;56.832;60.658;2023-03-01T01:59:50;7.30;;;4.20;;
42726;SDS011;28372;56.832;60.658;2023-03-01T02:02:22;9.45;;;4.53;;
42726;SDS011;28372;56.832;60.658;2023-03-01T02:04:51;9.68;;;4.85;;
42726;SDS011;28372;56.832;60.658;2023-03-01T02:07:30;8.20;;;3.72;;
42726;SDS011;28372;56.832;60.658;2023-03-01T02:09:58;6.43;;;3.40;;
42726;SDS011;28372;56.832;60.658;2023-03-01T02:12:26;9.55;;;5.68;;
42726;SDS011;28372;56.832;60.658;2023-03-01T02:14:54;8.30;;;3.90;;
42726;SDS011;28372;56.832;60.658;2023-03-01T02:17:21;8.25;;;3.70;;
42726;SDS011;28372;56.832;60.658;2023-03-01T02:22:47;11.30;;;6.07;;
42726;SDS011;28372;56.832;60.658;2023-03-01T02:30:30;5.68;;;2.88;;
42726;SDS011;28372;56.832;60.658;2023-03-01T02:33:00;8.65;;;5.15;;
42726;SDS011;28372;56.832;60.658;2023-03-01T02:35:31;7.85;;;3.45;;
42726;SDS011;28372;56.832;60.658;2023-03-01T02:38:01;9.07;;;4.55;;
42726;SDS011;28372;56.832;60.658;2023-03-01T02:40:30;6.85;;;2.80;;
42726;SDS011;28372;56.832;60.658;2023-03-01T02:43:01;7.38;;;3.78;;
42726;SDS011;28372;56.832;60.658;2023-03-01T02:48:02;10.93;;;4.25;;
42726;SDS011;28372;56.832;60.658;2023-03-01T02:56:00;13.18;;;5.28;;
42726;SDS011;28372;56.832;60.658;2023-03-01T02:58:28;12.65;;;5.72;;
42726;SDS011;28372;56.832;60.658;2023-03-01T03:00:56;13.05;;;6.50;;
42726;SDS011;28372;56.832;60.658;2023-03-01T03:03:25;13.48;;;6.30;;
42726;SDS011;28372;56.832;60.658;2023-03-01T03:05:52;12.75;;;5.90;;
42726;SDS011;28372;56.832;60.658;2023-03-01T03:08:21;10.95;;;5.25;;
42726;SDS011;28372;56.832;60.658;2023-03-01T03:10:52;10.95;;;5.32;;
42726;SDS011;28372;56.832;60.658;2023-03-01T03:13:21;10.57;;;5.30;;
42726;SDS011;28372;56.832;60.658;2023-03-01T03:15:49;9.32;;;4.50;;
42726;SDS011;28372;56.832;60.658;2023-03-01T03:18:17;10.52;;;4.80;;
42726;SDS011;28372;56.832;60.658;2023-03-01T03:20:45;9.75;;;4.55;;
42726;SDS011;28372;56.832;60.658;2023-03-01T03:23:13;7.97;;;4.47;;
42726;SDS011;28372;56.832;60.658;2023-03-01T03:25:40;9.45;;;4.25;;
42726;SDS011;28372;56.832;60.658;2023-03-01T03:28:08;7.25;;;3.85;;
42726;SDS011;28372;56.832;60.658;2023-03-01T03:30:37;7.40;;;3.67;;
42726;SDS011;28372;56.832;60.658;2023-03-01T03:33:07;7.97;;;3.90;;
42726;SDS011;28372;56.832;60.658;2023-03-01T03:35:45;6.13;;;3.33;;
42726;SDS011;28372;56.832;60.658;2023-03-01T03:38:16;6.97;;;4.07;;
42726;SDS011;28372;56.832;60.658;2023-03-01T03:40:47;6.18;;;3.65;;
42726;SDS011;28372;56.832;60.658;2023-03-01T03:43:17;7.90;;;3.95;;
42726;SDS011;28372;56.832;60.658;2023-03-01T03:45:47;7.65;;;3.83;;
42726;SDS011;28372;56.832;60.658;2023-03-01T03:48:17;6.82;;;3.75;;
42726;SDS011;28372;56.832;60.658;2023-03-01T03:50:52;8.57;;;4.43;;
42726;SDS011;28372;56.832;60.658;2023-03-01T03:53:23;7.72;;;3.13;;
42726;SDS011;28372;56.832;60.658;2023-03-01T03:55:52;8.18;;;3.63;;
42726;SDS011;28372;56.832;60.658;2023-03-01T03:58:21;6.03;;;3.10;;
42726;SDS011;28372;56.832;60.658;2023-03-01T04:00:51;9.85;;;4.60;;
42726;SDS011;28372;56.832;60.658;2023-03-01T04:03:20;8.05;;;4.90;;
42726;SDS011;28372;56.832;60.658;2023-03-01T04:05:48;6.70;;;4.15;;
42726;SDS011;28372;56.832;60.658;2023-03-01T04:08:18;11.88;;;6.18;;
42726;SDS011;28372;56.832;60.658;2023-03-01T04:10:48;10.55;;;6.78;;
42726;SDS011;28372;56.832;60.658;2023-03-01T04:13:21;10.77;;;6.53;;
42726;SDS011;28372;56.832;60.658;2023-03-01T04:15:50;11.10;;;5.15;;
42726;SDS011;28372;56.832;60.658;2023-03-01T04:18:23;6.95;;;2.90;;
42726;SDS011;28372;56.832;60.658;2023-03-01T04:20:52;7.38;;;4.80;;
42726;SDS011;28372;56.832;60.658;2023-03-01T04:23:22;10.93;;;4.88;;
42726;SDS011;28372;56.832;60.658;2023-03-01T04:25:54;8.10;;;4.57;;
42726;SDS011;28372;56.832;60.658;2023-03-01T04:28:24;6.68;;;3.38;;
42726;SDS011;28372;56.832;60.658;2023-03-01T04:31:08;8.48;;;4.65;;
42726;SDS011;28372;56.832;60.658;2023-03-01T04:33:45;8.88;;;4.18;;
42726;SDS011;28372;56.832;60.658;2023-03-01T04:36:14;7.68;;;4.00;;
42726;SDS011;28372;56.832;60.658;2023-03-01T04:38:43;13.05;;;5.32;;
42726;SDS011;28372;56.832;60.658;2023-03-01T04:41:18;9.55;;;5.00;;
42726;SDS011;28372;56.832;60.658;2023-03-01T04:43:47;8.93;;;4.20;;
42726;SDS011;28372;56.832;60.658;2023-03-01T04:46:17;8.35;;;4.20;;
42726;SDS011;28372;56.832;60.658;2023-03-01T04:48:46;6.70;;;4.20;;
42726;SDS011;28372;56.832;60.658;2023-03-01T04:51:14;7.47;;;3.90;;
42726;SDS011;28372;56.832;60.658;2023-03-01T04:53:42;9.80;;;3.88;;
42726;SDS011;28372;56.832;60.658;2023-03-01T04:56:11;7.38;;;3.80;;
42726;SDS011;28372;56.832;60.658;2023-03-01T04:58:43;7.75;;;3.83;;
42726;SDS011;28372;56.832;60.658;2023-03-01T05:01:15;5.00;;;2.45;;
42726;SDS011;28372;56.832;60.658;2023-03-01T05:03:44;5.53;;;3.15;;
42726;SDS011;28372;56.832;60.658;2023-03-01T05:06:14;8.15;;;3.83;;
42726;SDS011;28372;56.832;60.658;2023-03-01T05:08:43;7.93;;;3.42;;
42726;SDS011;28372;56.832;60.658;2023-03-01T05:11:11;7.00;;;3.95;;
42726;SDS011;28372;56.832;60.658;2023-03-01T05:13:40;8.73;;;3.80;;
42726;SDS011;28372;56.832;60.658;2023-03-01T05:16:09;5.85;;;3.17;;
42726;SDS011;28372;56.832;60.658;2023-03-01T05:18:39;7.03;;;3.40;;
42726;SDS011;28372;56.832;60.658;2023-03-01T05:21:08;7.47;;;3.72;;
42726;SDS011;28372;56.832;60.658;2023-03-01T05:23:43;6.65;;;3.20;;
42726;SDS011;28372;56.832;60.658;2023-03-01T05:26:12;5.43;;;3.05;;
42726;SDS011;28372;56.832;60.658;2023-03-01T05:28:56;6.15;;;3.15;;
42726;SDS011;28372;56.832;60.658;2023-03-01T05:31:26;9.27;;;3.35;;
42726;SDS011;28372;56.832;60.658;2023-03-01T05:33:54;4.80;;;2.80;;
42726;SDS011;28372;56.832;60.658;2023-03-01T05:36:22;7.57;;;3.20;;
42726;SDS011;28372;56.832;60.658;2023-03-01T05:38:50;7.72;;;3.13;;
42726;SDS011;28372;56.832;60.658;2023-03-01T05:41:17;5.03;;;2.97;;
42726;SDS011;28372;56.832;60.658;2023-03-01T05:43:45;7.03;;;3.20;;
42726;SDS011;28372;56.832;60.658;2023-03-01T05:46:13;4.88;;;2.05;;
42726;SDS011;28372;56.832;60.658;2023-03-01T05:48:42;5.75;;;3.13;;
42726;SDS011;28372;56.832;60.658;2023-03-01T05:51:10;6.00;;;3.08;;
42726;SDS011;28372;56.832;60.658;2023-03-01T05:53:38;6.55;;;2.97;;
42726;SDS011;28372;56.832;60.658;2023-03-01T05:56:06;5.72;;;3.08;;
42726;SDS011;28372;56.832;60.658;2023-03-01T05:58:34;5.75;;;3.10;;
42726;SDS011;28372;56.832;60.658;2023-03-01T06:01:02;3.47;;;1.85;;
42726;SDS011;28372;56.832;60.658;2023-03-01T06:03:29;2.65;;;1.52;;
42726;SDS011;28372;56.832;60.658;2023-03-01T06:05:57;6.80;;;3.53;;
42726;SDS011;28372;56.832;60.658;2023-03-01T06:08:25;5.90;;;3.35;;
42726;SDS011;28372;56.832;60.658;2023-03-01T06:10:54;5.70;;;2.85;;
42726;SDS011;28372;56.832;60.658;2023-03-01T06:13:22;4.30;;;2.55;;
42726;SDS011;28372;56.832;60.658;2023-03-01T06:15:50;5.35;;;3.03;;
42726;SDS011;28372;56.832;60.658;2023-03-01T06:18:18;7.53;;;3.72;;
42726;SDS011;28372;56.832;60.658;2023-03-01T06:20:52;3.22;;;1.67;;
42726;SDS011;28372;56.832;60.658;2023-03-01T06:25:48;9.10;;;3.60;;
42726;SDS011;28372;56.832;60.658;2023-03-01T06:28:16;5.22;;;2.70;;
42726;SDS011;28372;56.832;60.658;2023-03-01T06:30:43;6.07;;;3.08;;
42726;SDS011;28372;56.832;60.658;2023-03-01T06:33:11;4.35;;;2.50;;
42726;SDS011;28372;56.832;60.658;2023-03-01T06:35:40;3.25;;;1.33;;
42726;SDS011;28372;56.832;60.658;2023-03-01T06:38:07;5.57;;;2.97;;
42726;SDS011;28372;56.832;60.658;2023-03-01T06:40:35;6.43;;;3.08;;
42726;SDS011;28372;56.832;60.658;2023-03-01T06:43:02;6.70;;;3.03;;
42726;SDS011;28372;56.832;60.658;2023-03-01T06:45:30;6.15;;;3.05;;
42726;SDS011;28372;56.832;60.658;2023-03-01T06:48:02;4.72;;;2.55;;
42726;SDS011;28372;56.832;60.658;2023-03-01T06:50:33;4.20;;;2.00;;
42726;SDS011;28372;56.832;60.658;2023-03-01T06:53:02;3.58;;;2.00;;
42726;SDS011;28372;56.832;60.658;2023-03-01T06:55:30;6.22;;;3.30;;
42726;SDS011;28372;56.832;60.658;2023-03-01T06:57:58;5.13;;;2.97;;
42726;SDS011;28372;56.832;60.658;2023-03-01T07:00:28;5.30;;;2.67;;
42726;SDS011;28372;56.832;60.658;2023-03-01T07:02:58;6.85;;;3.20;;
42726;SDS011;28372;56.832;60.658;2023-03-01T07:05:26;6.15;;;3.30;;
42726;SDS011;28372;56.832;60.658;2023-03-01T07:07:54;6.22;;;3.50;;
42726;SDS011;28372;56.832;60.658;2023-03-01T07:10:23;7.10;;;3.00;;
42726;SDS011;28372;56.832;60.658;2023-03-01T07:12:54;8.73;;;3.58;;
42726;SDS011;28372;56.832;60.658;2023-03-01T07:15:22;10.68;;;4.80;;
42726;SDS011;28372;56.832;60.658;2023-03-01T07:17:50;9.55;;;3.58;;
42726;SDS011;28372;56.832;60.658;2023-03-01T07:20:18;6.35;;;2.70;;
42726;SDS011;28372;56.832;60.658;2023-03-01T07:22:53;6.15;;;3.30;;
42726;SDS011;28372;56.832;60.658;2023-03-01T07:25:21;6.50;;;3.67;;
42726;SDS011;28372;56.832;60.658;2023-03-01T07:27:50;4.18;;;2.13;;
42726;SDS011;28372;56.832;60.658;2023-03-01T07:30:18;3.33;;;1.85;;
42726;SDS011;28372;56.832;60.658;2023-03-01T07:32:47;5.63;;;2.58;;
42726;SDS011;28372;56.832;60.658;2023-03-01T07:35:15;5.32;;;3.08;;
42726;SDS011;28372;56.832;60.658;2023-03-01T07:37:43;2.83;;;1.60;;
42726;SDS011;28372;56.832;60.658;2023-03-01T07:40:11;5.03;;;2.63;;
42726;SDS011;28372;56.832;60.658;2023-03-01T07:42:39;3.75;;;1.83;;
42726;SDS011;28372;56.832;60.658;2023-03-01T07:45:07;3.30;;;2.10;;
42726;SDS011;28372;56.832;60.658;2023-03-01T07:47:35;4.35;;;2.65;;
42726;SDS011;28372;56.832;60.658;2023-03-01T07:50:03;4.13;;;2.38;;
42726;SDS011;28372;56.832;60.658;2023-03-01T07:52:31;8.38;;;3.90;;
42726;SDS011;28372;56.832;60.658;2023-03-01T07:54:59;7.03;;;2.75;;
42726;SDS011;28372;56.832;60.658;2023-03-01T07:57:28;9.30;;;4.70;;
42726;SDS011;28372;56.832;60.658;2023-03-01T07:59:56;4.93;;;2.78;;
42726;SDS011;28372;56.832;60.658;2023-03-01T08:02:23;4.65;;;2.70;;
42726;SDS011;28372;56.832;60.658;2023-03-01T08:04:51;4.35;;;2.60;;
42726;SDS011;28372;56.832;60.658;2023-03-01T08:07:18;4.78;;;2.28;;
42726;SDS011;28372;56.832;60.658;2023-03-01T08:09:46;8.32;;;3.20;;
42726;SDS011;28372;56.832;60.658;2023-03-01T08:12:14;5.97;;;2.95;;
42726;SDS011;28372;56.832;60.658;2023-03-01T08:14:43;3.25;;;1.85;;
42726;SDS011;28372;56.832;60.658;2023-03-01T08:17:13;6.32;;;3.35;;
42726;SDS011;28372;56.832;60.658;2023-03-01T08:19:42;2.60;;;1.45;;
42726;SDS011;28372;56.832;60.658;2023-03-01T08:22:10;5.18;;;2.45;;
42726;SDS011;28372;56.832;60.658;2023-03-01T08:24:37;5.90;;;2.92;;
42726;SDS011;28372;56.832;60.658;2023-03-01T08:27:05;5.43;;;2.83;;
42726;SDS011;28372;56.832;60.658;2023-03-01T08:29:33;5.53;;;3.00;;
42726;SDS011;28372;56.832;60.658;2023-03-01T08:32:01;6.32;;;3.10;;
42726;SDS011;28372;56.832;60.658;2023-03-01T08:34:28;5.45;;;3.33;;
42726;SDS011;28372;56.832;60.658;2023-03-01T08:36:58;4.60;;;2.60;;
42726;SDS011;28372;56.832;60.658;2023-03-01T08:39:25;6.95;;;3.63;;
42726;SDS011;28372;56.832;60.658;2023-03-01T08:41:53;5.95;;;3.20;;
42726;SDS011;28372;56.832;60.658;2023-03-01T08:44:20;7.07;;;3.30;;
42726;SDS011;28372;56.832;60.658;2023-03-01T08:46:50;5.57;;;3.22;;
42726;SDS011;28372;56.832;60.658;2023-03-01T08:49:19;6.53;;;3.03;;
42726;SDS011;28372;56.832;60.658;2023-03-01T08:51:47;5.43;;;3.38;;
42726;SDS011;28372;56.832;60.658;2023-03-01T08:54:16;6.38;;;3.50;;
42726;SDS011;28372;56.832;60.658;2023-03-01T08:56:48;6.13;;;3.45;;
42726;SDS011;28372;56.832;60.658;2023-03-01T08:59:16;5.72;;;3.17;;
42726;SDS011;28372;56.832;60.658;2023-03-01T09:01:44;6.40;;;3.25;;
42726;SDS011;28372;56.832;60.658;2023-03-01T09:04:12;7.00;;;3.30;;
42726;SDS011;28372;56.832;60.658;2023-03-01T09:06:42;5.30;;;3.00;;
42726;SDS011;28372;56.832;60.658;2023-03-01T09:09:13;6.03;;;3.20;;
42726;SDS011;28372;56.832;60.658;2023-03-01T09:11:44;5.35;;;3.22;;
42726;SDS011;28372;56.832;60.658;2023-03-01T09:14:13;6.05;;;3.20;;
42726;SDS011;28372;56.832;60.658;2023-03-01T09:16:41;5.00;;;2.95;;
42726;SDS011;28372;56.832;60.658;2023-03-01T09:19:09;6.20;;;3.50;;
42726;SDS011;28372;56.832;60.658;2023-03-01T09:21:38;5.88;;;2.92;;
42726;SDS011;28372;56.832;60.658;2023-03-01T09:24:11;5.30;;;3.03;;
42726;SDS011;28372;56.832;60.658;2023-03-01T09:26:42;4.93;;;2.88;;
42726;SDS011;28372;56.832;60.658;2023-03-01T09:29:16;5.32;;;3.00;;
42726;SDS011;28372;56.832;60.658;2023-03-01T09:31:43;6.30;;;2.63;;
42726;SDS011;28372;56.832;60.658;2023-03-01T09:34:11;5.72;;;3.10;;
42726;SDS011;28372;56.832;60.658;2023-03-01T09:36:42;6.13;;;3.15;;
42726;SDS011;28372;56.832;60.658;2023-03-01T09:39:10;4.78;;;2.70;;
42726;SDS011;28372;56.832;60.658;2023-03-01T09:47:23;4.90;;;2.90;;
42726;SDS011;28372;56.832;60.658;2023-03-01T09:49:58;5.10;;;2.40;;
42726;SDS011;28372;56.832;60.658;2023-03-01T09:55:33;5.00;;;2.60;;
42726;SDS011;28372;56.832;60.658;2023-03-01T10:00:59;5.20;;;2.28;;
42726;SDS011;28372;56.832;60.658;2023-03-01T10:03:39;5.18;;;2.17;;
42726;SDS011;28372;56.832;60.658;2023-03-01T10:06:15;4.70;;;2.60;;
42726;SDS011;28372;56.832;60.658;2023-03-01T10:09:10;5.07;;;2.63;;
42726;SDS011;28372;56.832;60.658;2023-03-01T10:11:45;5.75;;;2.70;;
42726;SDS011;28372;56.832;60.658;2023-03-01T10:14:20;4.53;;;2.38;;
42726;SDS011;28372;56.832;60.658;2023-03-01T10:17:05;5.82;;;2.97;;
42726;SDS011;28372;56.832;60.658;2023-03-01T10:19:41;4.40;;;2.20;;
42726;SDS011;28372;56.832;60.658;2023-03-01T10:22:15;4.45;;;2.00;;
42726;SDS011;28372;56.832;60.658;2023-03-01T10:24:48;4.80;;;2.78;;
42726;SDS011;28372;56.832;60.658;2023-03-01T10:27:23;5.20;;;2.40;;
42726;SDS011;28372;56.832;60.658;2023-03-01T10:32:31;5.05;;;2.50;;
42726;SDS011;28372;56.832;60.658;2023-03-01T10:34:58;5.93;;;2.65;;
42726;SDS011;28372;56.832;60.658;2023-03-01T10:37:28;5.57;;;2.50;;
42726;SDS011;28372;56.832;60.658;2023-03-01T10:39:57;4.90;;;2.65;;
42726;SDS011;28372;56.832;60.658;2023-03-01T10:50:33;5.90;;;2.70;;
42726;SDS011;28372;56.832;60.658;2023-03-01T10:53:04;5.18;;;2.72;;
42726;SDS011;28372;56.832;60.658;2023-03-01T10:55:36;5.00;;;2.35;;
42726;SDS011;28372;56.832;60.658;2023-03-01T10:58:27;4.97;;;2.30;;
42726;SDS011;28372;56.832;60.658;2023-03-01T11:00:54;5.38;;;2.88;;
42726;SDS011;28372;56.832;60.658;2023-03-01T11:03:32;5.43;;;2.90;;
42726;SDS011;28372;56.832;60.658;2023-03-01T11:08:45;5.35;;;2.90;;
42726;SDS011;28372;56.832;60.658;2023-03-01T11:17:01;4.90;;;2.40;;
42726;SDS011;28372;56.832;60.658;2023-03-01T11:19:32;4.90;;;2.25;;
42726;SDS011;28372;56.832;60.658;2023-03-01T11:24:45;4.95;;;2.55;;
42726;SDS011;28372;56.832;60.658;2023-03-01T11:27:31;5.60;;;3.05;;
42726;SDS011;28372;56.832;60.658;2023-03-01T11:30:03;4.97;;;2.78;;
42726;SDS011;28372;56.832;60.658;2023-03-01T11:35:26;6.75;;;2.75;;
42726;SDS011;28372;56.832;60.658;2023-03-01T11:37:59;5.85;;;2.63;;
42726;SDS011;28372;56.832;60.658;2023-03-01T11:43:50;6.63;;;2.88;;
42726;SDS011;28372;56.832;60.658;2023-03-01T11:46:32;4.78;;;2.40;;
42726;SDS011;28372;56.832;60.658;2023-03-01T11:52:48;4.72;;;2.58;;
42726;SDS011;28372;56.832;60.658;2023-03-01T11:58:53;5.82;;;3.05;;
42726;SDS011;28372;56.832;60.658;2023-03-01T12:07:17;7.38;;;3.10;;
42726;SDS011;28372;56.832;60.658;2023-03-01T12:10:57;6.68;;;3.10;;
42726;SDS011;28372;56.832;60.658;2023-03-01T12:19:11;5.97;;;3.05;;
42726;SDS011;28372;56.832;60.658;2023-03-01T12:22:06;5.38;;;3.10;;
42726;SDS011;28372;56.832;60.658;2023-03-01T12:28:02;5.93;;;3.47;;
42726;SDS011;28372;56.832;60.658;2023-03-01T12:33:58;6.20;;;3.47;;
42726;SDS011;28372;56.832;60.658;2023-03-01T12:37:31;5.30;;;3.27;;
42726;SDS011;28372;56.832;60.658;2023-03-01T12:42:22;6.43;;;3.28;;
42726;SDS011;28372;56.832;60.658;2023-03-01T12:45:25;6.22;;;3.70;;
42726;SDS011;28372;56.832;60.658;2023-03-01T12:48:06;7.68;;;4.13;;
42726;SDS011;28372;56.832;60.658;2023-03-01T12:50:52;5.32;;;3.10;;
42726;SDS011;28372;56.832;60.658;2023-03-01T12:55:52;5.65;;;3.20;;
42726;SDS011;28372;56.832;60.658;2023-03-01T13:04:16;6.65;;;3.63;;
42726;SDS011;28372;56.832;60.658;2023-03-01T13:07:01;5.70;;;3.20;;
42726;SDS011;28372;56.832;60.658;2023-03-01T13:17:55;7.68;;;3.17;;
42726;SDS011;28372;56.832;60.658;2023-03-01T13:33:43;4.30;;;2.70;;
42726;SDS011;28372;56.832;60.658;2023-03-01T13:38:57;5.95;;;2.90;;
42726;SDS011;28372;56.832;60.658;2023-03-01T13:46:47;6.75;;;3.42;;
42726;SDS011;28372;56.832;60.658;2023-03-01T13:49:20;6.40;;;3.17;;
42726;SDS011;28372;56.832;60.658;2023-03-01T13:51:50;5.82;;;3.22;;
42726;SDS011;28372;56.832;60.658;2023-03-01T13:54:23;6.47;;;3.20;;
42726;SDS011;28372;56.832;60.658;2023-03-01T13:56:57;5.50;;;3.00;;
42726;SDS011;28372;56.832;60.658;2023-03-01T13:59:26;5.63;;;2.83;;
42726;SDS011;28372;56.832;60.658;2023-03-01T14:01:57;4.72;;;2.92;;
42726;SDS011;28372;56.832;60.658;2023-03-01T14:04:30;4.60;;;3.00;;
42726;SDS011;28372;56.832;60.658;2023-03-01T14:07:22;5.13;;;2.90;;
42726;SDS011;28372;56.832;60.658;2023-03-01T14:09:52;5.18;;;2.83;;
42726;SDS011;28372;56.832;60.658;2023-03-01T14:18:03;6.43;;;3.08;;
42726;SDS011;28372;56.832;60.658;2023-03-01T14:20:37;5.78;;;3.28;;
42726;SDS011;28372;56.832;60.658;2023-03-01T14:25:45;6.00;;;3.33;;
42726;SDS011;28372;56.832;60.658;2023-03-01T14:28:25;6.07;;;3.08;;
42726;SDS011;28372;56.832;60.658;2023-03-01T14:30:56;7.03;;;3.30;;
42726;SDS011;28372;56.832;60.658;2023-03-01T14:33:26;4.82;;;2.80;;
42726;SDS011;28372;56.832;60.658;2023-03-01T14:36:02;5.47;;;2.97;;
42726;SDS011;28372;56.832;60.658;2023-03-01T14:41:12;8.60;;;3.30;;
42726;SDS011;28372;56.832;60.658;2023-03-01T14:43:46;5.40;;;2.88;;
42726;SDS011;28372;56.832;60.658;2023-03-01T14:46:32;5.07;;;2.88;;
42726;SDS011;28372;56.832;60.658;2023-03-01T14:49:14;5.30;;;3.13;;
42726;SDS011;28372;56.832;60.658;2023-03-01T14:51:53;6.60;;;3.40;;
42726;SDS011;28372;56.832;60.658;2023-03-01T14:57:00;5.72;;;3.05;;
42726;SDS011;28372;56.832;60.658;2023-03-01T14:59:28;6.45;;;3.10;;
42726;SDS011;28372;56.832;60.658;2023-03-01T15:01:56;5.55;;;3.25;;
42726;SDS011;28372;56.832;60.658;2023-03-01T15:04:28;4.70;;;2.90;;
42726;SDS011;28372;56.832;60.658;2023-03-01T15:06:58;6.30;;;3.03;;
42726;SDS011;28372;56.832;60.658;2023-03-01T15:09:33;6.50;;;2.92;;
42726;SDS011;28372;56.832;60.658;2023-03-01T15:14:58;4.82;;;2.72;;
42726;SDS011;28372;56.832;60.658;2023-03-01T15:17:31;5.05;;;2.97;;
42726;SDS011;28372;56.832;60.658;2023-03-01T15:20:07;6.45;;;3.15;;
42726;SDS011;28372;56.832;60.658;2023-03-01T15:22:44;5.32;;;3.08;;
42726;SDS011;28372;56.832;60.658;2023-03-01T15:25:16;4.07;;;2.78;;
42726;SDS011;28372;56.832;60.658;2023-03-01T15:27:56;5.25;;;3.05;;
42726;SDS011;28372;56.832;60.658;2023-03-01T15:35:47;5.32;;;3.13;;
42726;SDS011;28372;56.832;60.658;2023-03-01T15:38:34;4.63;;;2.78;;
42726;SDS011;28372;56.832;60.658;2023-03-01T15:41:21;5.05;;;2.80;;
42726;SDS011;28372;56.832;60.658;2023-03-01T15:43:54;6.63;;;3.10;;
42726;SDS011;28372;56.832;60.658;2023-03-01T15:49:04;6.07;;;3.40;;
42726;SDS011;28372;56.832;60.658;2023-03-01T15:51:48;5.97;;;3.50;;
42726;SDS011;28372;56.832;60.658;2023-03-01T15:54:19;8.40;;;4.20;;
42726;SDS011;28372;56.832;60.658;2023-03-01T15:56:49;5.97;;;3.65;;
42726;SDS011;28372;56.832;60.658;2023-03-01T15:59:19;7.35;;;4.20;;
42726;SDS011;28372;56.832;60.658;2023-03-01T16:01:49;9.35;;;4.80;;
42726;SDS011;28372;56.832;60.658;2023-03-01T16:04:18;10.93;;;5.35;;
42726;SDS011;28372;56.832;60.658;2023-03-01T16:06:54;8.63;;;4.60;;
42726;SDS011;28372;56.832;60.658;2023-03-01T16:09:22;8.35;;;4.20;;
42726;SDS011;28372;56.832;60.658;2023-03-01T16:11:51;8.85;;;4.18;;
42726;SDS011;28372;56.832;60.658;2023-03-01T16:14:20;9.77;;;4.28;;
42726;SDS011;28372;56.832;60.658;2023-03-01T16:16:49;7.80;;;4.18;;
42726;SDS011;28372;56.832;60.658;2023-03-01T16:19:28;7.85;;;3.85;;
42726;SDS011;28372;56.832;60.658;2023-03-01T16:21:56;6.50;;;3.40;;
42726;SDS011;28372;56.832;60.658;2023-03-01T16:24:23;6.65;;;3.58;;
42726;SDS011;28372;56.832;60.658;2023-03-01T16:26:57;6.55;;;3.80;;
42726;SDS011;28372;56.832;60.658;2023-03-01T16:29:29;8.38;;;4.53;;
42726;SDS011;28372;56.832;60.658;2023-03-01T16:31:59;8.52;;;4.70;;
42726;SDS011;28372;56.832;60.658;2023-03-01T16:34:32;7.05;;;3.75;;
42726;SDS011;28372;56.832;60.658;2023-03-01T16:37:02;6.43;;;3.83;;
42726;SDS011;28372;56.832;60.658;2023-03-01T16:39:31;6.70;;;3.95;;
42726;SDS011;28372;56.832;60.658;2023-03-01T16:42:01;8.80;;;5.28;;
42726;SDS011;28372;56.832;60.658;2023-03-01T16:44:29;5.80;;;3.13;;
42726;SDS011;28372;56.832;60.658;2023-03-01T16:46:57;7.60;;;3.75;;
42726;SDS011;28372;56.832;60.658;2023-03-01T16:49:24;7.60;;;4.32;;
42726;SDS011;28372;56.832;60.658;2023-03-01T16:51:55;7.63;;;3.85;;
42726;SDS011;28372;56.832;60.658;2023-03-01T16:54:23;6.68;;;4.07;;
42726;SDS011;28372;56.832;60.658;2023-03-01T16:56:50;7.03;;;3.95;;
42726;SDS011;28372;56.832;60.658;2023-03-01T16:59:29;9.63;;;4.60;;
42726;SDS011;28372;56.832;60.658;2023-03-01T17:01:57;8.55;;;4.65;;
42726;SDS011;28372;56.832;60.658;2023-03-01T17:04:25;6.05;;;3.60;;
42726;SDS011;28372;56.832;60.658;2023-03-01T17:06:53;8.23;;;4.25;;
42726;SDS011;28372;56.832;60.658;2023-03-01T17:09:21;8.35;;;3.88;;
42726;SDS011;28372;56.832;60.658;2023-03-01T17:11:49;9.13;;;4.25;;
42726;SDS011;28372;56.832;60.658;2023-03-01T17:14:16;6.97;;;3.65;;
42726;SDS011;28372;56.832;60.658;2023-03-01T17:16:44;7.53;;;4.20;;
42726;SDS011;28372;56.832;60.658;2023-03-01T17:19:12;6.80;;;3.83;;
42726;SDS011;28372;56.832;60.658;2023-03-01T17:21:44;8.20;;;4.22;;
42726;SDS011;28372;56.832;60.658;2023-03-01T17:24:13;6.43;;;3.85;;
42726;SDS011;28372;56.832;60.658;2023-03-01T17:26:40;10.93;;;5.60;;
42726;SDS011;28372;56.832;60.658;2023-03-01T17:29:08;7.25;;;4.00;;
42726;SDS011;28372;56.832;60.658;2023-03-01T17:31:39;8.77;;;4.45;;
42726;SDS011;28372;56.832;60.658;2023-03-01T17:34:06;6.68;;;3.85;;